OLR weather

Salerno Landing Zone Airport
Paktia Province, Afghanistan

Public forecast

Using degrees Celsius for public forecast. Weather courtesy of forecast.io.

METAR (pilot weather report)

Closest report is Hamid Karzai International Airport, 81.1 nm (150.2 km) NNW. Retrieved 2019/08/17 11:50 UTC (12 minutes ago):

OAKB 171150Z 06007KT 9999 FEW060 30/M08 Q1010 NOSIG RMK A2985 BLU BLU

TAF (pilot weather forecast)

Closest forecast is Jalalabad Airport, 67.8 nm (125.6 km) NNE. Retrieved 2019/08/17 08:02 UTC (4 hours ago):

TAF OAJL 170800Z 1708/1814 06009KT 9999 BKN080 QNH2960INS BECMG 1722/1723 12006KT 9999 BKN060 QNH2966INS TEMPO 1722/1804 VRB10G18KT 8000 TSRA BKN060CB TX35/1710Z TN22/1801Z